createdAt,value
2023-04-25T00:02:26.374Z,10.20
2023-04-25T00:04:53.646Z,6.30
2023-04-25T00:07:20.888Z,6.70
2023-04-25T00:09:47.889Z,8.40
2023-04-25T00:12:14.859Z,7.83
2023-04-25T00:14:41.970Z,6.70
2023-04-25T00:17:08.946Z,7.07
2023-04-25T00:19:35.938Z,8.27
2023-04-25T00:22:02.891Z,6.57
2023-04-25T00:24:29.857Z,6.50
2023-04-25T00:26:56.840Z,5.00
2023-04-25T00:29:23.825Z,5.20
2023-04-25T00:31:50.830Z,6.77
2023-04-25T00:34:17.784Z,5.73
2023-04-25T00:36:44.811Z,5.43
2023-04-25T00:39:12.640Z,5.57
2023-04-25T00:41:40.755Z,6.10
2023-04-25T00:44:12.129Z,5.90
2023-04-25T00:46:40.997Z,5.93
2023-04-25T00:49:08.004Z,6.00
2023-04-25T00:51:35.415Z,7.20
2023-04-25T00:54:02.773Z,6.73
2023-04-25T00:56:29.803Z,6.30
2023-04-25T00:58:57.780Z,6.57
2023-04-25T01:01:24.916Z,5.43
2023-04-25T01:03:52.502Z,4.90
2023-04-25T01:06:19.862Z,6.13
2023-04-25T01:08:46.885Z,5.80
2023-04-25T01:11:13.874Z,4.00
2023-04-25T01:13:40.913Z,4.10
2023-04-25T01:16:08.077Z,4.10
2023-04-25T01:18:35.256Z,3.73
2023-04-25T01:21:14.205Z,4.80
2023-04-25T01:23:42.694Z,4.30
2023-04-25T01:26:13.433Z,4.40
2023-04-25T01:28:42.350Z,3.90
2023-04-25T01:31:10.341Z,3.83
2023-04-25T01:33:38.472Z,4.13
2023-04-25T01:36:06.169Z,3.47
2023-04-25T01:38:33.790Z,4.07
2023-04-25T01:41:00.775Z,4.03
2023-04-25T01:43:27.936Z,4.10
2023-04-25T01:45:55.437Z,3.30
2023-04-25T01:48:22.395Z,3.13
2023-04-25T01:50:49.375Z,3.60
2023-04-25T01:53:16.471Z,2.70
2023-04-25T01:55:43.579Z,3.40
2023-04-25T01:58:13.310Z,3.80
2023-04-25T02:00:41.676Z,2.90
2023-04-25T02:03:09.604Z,3.67
2023-04-25T02:05:41.450Z,2.87
2023-04-25T02:08:10.109Z,3.10
2023-04-25T02:10:37.754Z,2.87
2023-04-25T02:13:06.188Z,2.97
2023-04-25T02:15:33.270Z,3.30
2023-04-25T02:18:01.269Z,3.07
2023-04-25T02:20:31.116Z,2.80
2023-04-25T02:22:58.015Z,3.47
2023-04-25T02:25:25.035Z,2.77
2023-04-25T02:27:52.565Z,2.93
2023-04-25T02:30:19.684Z,2.83
2023-04-25T02:32:47.155Z,2.87
2023-04-25T02:35:14.062Z,2.80
2023-04-25T02:37:41.724Z,2.10
2023-04-25T02:40:09.768Z,2.40
2023-04-25T02:42:37.153Z,2.43
2023-04-25T02:45:04.482Z,2.87
2023-04-25T02:47:31.803Z,2.03
2023-04-25T02:49:59.040Z,2.43
2023-04-25T02:52:26.306Z,2.20
2023-04-25T02:54:53.251Z,2.63
2023-04-25T02:57:20.184Z,1.87
2023-04-25T02:59:47.167Z,2.30
2023-04-25T03:02:14.131Z,1.90
2023-04-25T03:04:41.349Z,2.43
2023-04-25T03:07:08.653Z,1.60
2023-04-25T03:09:36.015Z,2.00
2023-04-25T03:12:02.942Z,1.83
2023-04-25T03:14:29.868Z,1.70
2023-04-25T03:16:56.838Z,2.13
2023-04-25T03:19:23.836Z,1.53
2023-04-25T03:21:50.855Z,1.87
2023-04-25T03:24:17.856Z,1.30
2023-04-25T03:26:44.879Z,1.90
2023-04-25T03:29:12.685Z,1.50
2023-04-25T03:31:39.669Z,1.70
2023-04-25T03:34:06.592Z,1.60
2023-04-25T03:36:33.749Z,1.83
2023-04-25T03:39:00.854Z,2.13
2023-04-25T03:41:28.810Z,1.90
2023-04-25T03:43:55.924Z,2.20
2023-04-25T03:46:22.936Z,1.70
2023-04-25T03:48:49.910Z,2.30
2023-04-25T03:51:16.941Z,2.47
2023-04-25T03:53:43.886Z,2.73
2023-04-25T03:56:10.902Z,3.07
2023-04-25T03:58:37.856Z,2.47
2023-04-25T04:01:08.323Z,2.07
2023-04-25T04:03:36.994Z,2.80
2023-04-25T04:06:06.626Z,2.20
2023-04-25T04:08:34.425Z,2.43
2023-04-25T04:11:01.755Z,2.60
2023-04-25T04:13:29.850Z,2.97
2023-04-25T04:15:57.110Z,2.50
2023-04-25T04:18:24.061Z,2.50
2023-04-25T04:20:50.998Z,2.37
2023-04-25T04:23:17.994Z,2.60
2023-04-25T04:25:44.962Z,2.40
2023-04-25T04:28:12.088Z,3.27
2023-04-25T04:30:40.249Z,2.33
2023-04-25T04:33:08.411Z,4.97
2023-04-25T04:35:35.667Z,14.40
2023-04-25T04:38:02.506Z,3.30
2023-04-25T04:40:29.492Z,9.33
2023-04-25T04:42:57.564Z,9.80
2023-04-25T04:45:25.087Z,5.43
2023-04-25T04:47:52.080Z,3.33
2023-04-25T04:50:19.222Z,4.43
2023-04-25T04:52:46.231Z,3.47
2023-04-25T04:55:13.195Z,2.87
2023-04-25T04:57:40.552Z,2.43
2023-04-25T05:00:11.915Z,2.50
2023-04-25T05:02:41.978Z,2.20
2023-04-25T05:05:09.353Z,3.27
2023-04-25T05:07:36.334Z,2.13
2023-04-25T05:10:04.422Z,3.10
2023-04-25T05:12:31.568Z,2.97
2023-04-25T05:14:58.559Z,2.70
2023-04-25T05:17:25.526Z,2.70
2023-04-25T05:19:52.416Z,2.53
2023-04-25T05:22:19.314Z,2.13
2023-04-25T05:24:46.218Z,3.03
2023-04-25T05:27:13.125Z,2.70
2023-04-25T05:29:40.053Z,2.10
2023-04-25T05:32:07.053Z,2.30
2023-04-25T05:34:34.066Z,2.67
2023-04-25T05:37:01.220Z,2.07
2023-04-25T05:39:28.372Z,2.90
2023-04-25T05:41:55.648Z,2.67
2023-04-25T05:44:22.854Z,2.40
2023-04-25T05:46:50.310Z,2.27
2023-04-25T05:49:19.402Z,2.27
2023-04-25T05:51:46.584Z,1.77
2023-04-25T05:54:13.558Z,1.93
2023-04-25T05:56:40.509Z,2.30
2023-04-25T05:59:07.397Z,1.70
2023-04-25T06:01:34.293Z,2.43
2023-04-25T06:04:01.553Z,2.00
2023-04-25T06:06:28.786Z,1.83
2023-04-25T06:08:56.496Z,1.37
2023-04-25T06:11:23.522Z,1.80
2023-04-25T06:13:50.779Z,1.57
2023-04-25T06:16:17.967Z,1.47
2023-04-25T06:18:44.938Z,1.73
2023-04-25T06:21:11.771Z,1.50
2023-04-25T06:23:38.722Z,1.77
2023-04-25T06:26:05.748Z,1.60
2023-04-25T06:28:32.706Z,1.87
2023-04-25T06:30:59.635Z,1.77
2023-04-25T06:33:27.641Z,1.63
2023-04-25T06:35:54.595Z,1.80
2023-04-25T06:38:21.610Z,1.57
2023-04-25T06:40:48.527Z,1.27
2023-04-25T06:43:15.371Z,1.07
2023-04-25T06:45:43.252Z,2.60
2023-04-25T06:48:10.283Z,6.20
2023-04-25T06:50:37.254Z,6.27
2023-04-25T06:53:04.245Z,6.00
2023-04-25T06:55:31.418Z,9.20
2023-04-25T06:57:58.313Z,6.90
2023-04-25T07:00:26.137Z,3.60
2023-04-25T07:02:53.215Z,1.43
2023-04-25T07:05:20.166Z,1.23
2023-04-25T07:07:47.173Z,1.83
2023-04-25T07:10:14.099Z,1.53
2023-04-25T07:12:41.075Z,2.03
2023-04-25T07:15:10.983Z,12.53
2023-04-25T07:17:38.072Z,3.77
2023-04-25T07:20:07.002Z,1.73
2023-04-25T07:22:34.236Z,1.60
2023-04-25T07:25:01.356Z,1.23
2023-04-25T07:27:28.826Z,1.40
2023-04-25T07:29:55.725Z,1.70
2023-04-25T07:32:22.701Z,1.43
2023-04-25T07:34:49.690Z,1.67
2023-04-25T07:37:16.764Z,0.83
2023-04-25T07:39:43.690Z,1.90
2023-04-25T07:42:10.772Z,1.10
2023-04-25T07:44:39.728Z,1.43
2023-04-25T07:47:10.680Z,3.57
2023-04-25T07:49:38.282Z,5.27
2023-04-25T07:52:07.191Z,2.07
2023-04-25T07:54:34.185Z,1.10
2023-04-25T07:57:01.490Z,1.20
2023-04-25T07:59:30.143Z,3.40
2023-04-25T08:01:58.340Z,6.53
2023-04-25T08:04:26.789Z,1.30
2023-04-25T08:06:57.029Z,1.43
2023-04-25T08:09:24.231Z,1.00
2023-04-25T08:11:51.206Z,1.13
2023-04-25T08:14:18.165Z,1.30
2023-04-25T08:16:45.433Z,1.80
2023-04-25T08:19:12.471Z,1.23
2023-04-25T08:21:39.444Z,1.00
2023-04-25T08:24:06.678Z,1.10
2023-04-25T08:26:34.045Z,1.30
2023-04-25T08:29:01.268Z,0.97
2023-04-25T08:31:28.492Z,36.47
2023-04-25T08:33:55.556Z,5.17
2023-04-25T08:36:37.572Z,1.60
2023-04-25T08:39:05.354Z,1.00
2023-04-25T08:41:33.168Z,1.00
2023-04-25T08:44:02.144Z,1.00
2023-04-25T08:46:32.343Z,1.00
2023-04-25T08:49:03.376Z,1.70
2023-04-25T08:51:33.760Z,0.77
2023-04-25T08:54:27.205Z,1.20
2023-04-25T08:57:00.613Z,1.43
2023-04-25T08:59:28.168Z,1.20
2023-04-25T09:01:55.978Z,1.43
2023-04-25T09:04:23.015Z,2.73
2023-04-25T09:06:50.061Z,4.67
2023-04-25T09:09:17.283Z,1.90
2023-04-25T09:11:44.248Z,1.50
2023-04-25T09:14:26.697Z,1.90
2023-04-25T09:16:56.554Z,1.70
2023-04-25T09:19:39.738Z,6.87
2023-04-25T09:22:08.669Z,6.13
2023-04-25T09:24:45.315Z,3.10
2023-04-25T09:27:19.401Z,1.60
2023-04-25T09:29:47.394Z,1.50
2023-04-25T09:32:23.769Z,1.37
2023-04-25T09:34:56.066Z,2.13
2023-04-25T09:37:28.524Z,1.17
2023-04-25T09:40:06.275Z,1.80
2023-04-25T09:42:35.545Z,2.50
2023-04-25T09:45:03.400Z,1.40
2023-04-25T09:47:30.470Z,1.30
2023-04-25T09:49:57.470Z,1.70
2023-04-25T09:52:26.452Z,1.23
2023-04-25T09:54:53.737Z,1.43
2023-04-25T09:57:27.219Z,1.10
2023-04-25T09:59:56.175Z,1.90
2023-04-25T10:02:26.249Z,1.20
2023-04-25T10:04:56.295Z,1.50
2023-04-25T10:07:31.112Z,1.23
2023-04-25T10:10:06.972Z,2.13
2023-04-25T10:12:35.141Z,2.10
2023-04-25T10:15:04.199Z,2.50
2023-04-25T10:17:32.619Z,1.97
2023-04-25T10:20:02.622Z,2.57
2023-04-25T10:22:42.795Z,2.80
2023-04-25T10:25:10.078Z,2.60
2023-04-25T10:27:38.142Z,1.97
2023-04-25T10:30:12.086Z,2.80
2023-04-25T10:32:39.248Z,2.33
2023-04-25T10:35:39.180Z,4.10
2023-04-25T10:38:15.019Z,1.80
2023-04-25T10:40:41.972Z,2.27
2023-04-25T10:43:41.680Z,1.93
2023-04-25T10:46:24.244Z,2.00
2023-04-25T10:48:53.117Z,1.83
2023-04-25T10:51:51.576Z,2.40
2023-04-25T10:54:23.391Z,3.27
2023-04-25T10:56:51.811Z,2.33
2023-04-25T10:59:20.083Z,1.90
2023-04-25T11:01:55.986Z,2.23
2023-04-25T11:04:37.313Z,2.30
2023-04-25T11:07:32.000Z,2.47
2023-04-25T11:10:03.178Z,2.67
2023-04-25T11:12:32.753Z,2.30
2023-04-25T11:15:09.533Z,8.47
2023-04-25T11:17:36.747Z,27.57
2023-04-25T11:20:08.413Z,4.10
2023-04-25T11:22:35.813Z,2.70
2023-04-25T11:25:07.837Z,3.13
2023-04-25T11:27:35.749Z,3.30
2023-04-25T11:30:19.183Z,2.97
2023-04-25T11:32:46.611Z,2.50
2023-04-25T11:35:14.178Z,2.70
2023-04-25T11:37:42.260Z,2.60
2023-04-25T11:40:13.271Z,2.30
2023-04-25T11:42:45.306Z,3.07
2023-04-25T11:45:12.526Z,2.70
2023-04-25T11:47:40.198Z,2.80
2023-04-25T11:50:09.506Z,2.60
2023-04-25T11:52:41.558Z,6.83
2023-04-25T11:55:18.655Z,9.27
2023-04-25T11:57:49.664Z,3.53
2023-04-25T12:00:21.053Z,4.83
2023-04-25T12:02:53.044Z,12.90
2023-04-25T12:05:31.988Z,7.03
2023-04-25T12:07:59.589Z,5.10
2023-04-25T12:10:27.073Z,8.57
2023-04-25T12:12:55.126Z,25.73
2023-04-25T12:15:26.773Z,3.37
2023-04-25T12:17:56.180Z,3.73
2023-04-25T12:20:26.953Z,3.70
2023-04-25T12:22:54.262Z,3.20
2023-04-25T12:25:42.865Z,3.10
2023-04-25T12:28:22.258Z,3.20
2023-04-25T12:31:00.845Z,3.00
2023-04-25T12:33:31.185Z,3.17
2023-04-25T12:35:59.220Z,3.37
2023-04-25T12:38:31.059Z,3.23
2023-04-25T12:40:59.371Z,2.90
2023-04-25T12:43:26.449Z,2.73
2023-04-25T12:45:55.616Z,2.83
2023-04-25T12:48:23.550Z,7.53
2023-04-25T12:50:52.773Z,6.50
2023-04-25T12:53:21.396Z,6.70
2023-04-25T12:55:49.099Z,3.90
2023-04-25T12:58:18.534Z,3.17
2023-04-25T13:00:46.533Z,3.13
2023-04-25T13:03:13.931Z,3.00
2023-04-25T13:05:41.273Z,2.90
2023-04-25T13:08:08.223Z,4.27
2023-04-25T13:10:35.215Z,7.17
2023-04-25T13:13:02.478Z,9.00
2023-04-25T13:15:29.460Z,2.80
2023-04-25T13:17:57.223Z,2.37
2023-04-25T13:20:24.392Z,2.50
2023-04-25T13:22:51.305Z,2.37
2023-04-25T13:25:18.348Z,2.13
2023-04-25T13:27:45.864Z,1.90
2023-04-25T13:30:13.251Z,1.97
2023-04-25T13:32:41.009Z,2.20
2023-04-25T13:35:13.440Z,3.20
2023-04-25T13:37:41.203Z,3.30
2023-04-25T13:40:12.200Z,3.70
2023-04-25T13:42:40.112Z,2.00
2023-04-25T13:45:08.602Z,2.00
2023-04-25T13:47:36.453Z,2.10
2023-04-25T13:50:04.998Z,2.07
2023-04-25T13:52:32.031Z,1.90
2023-04-25T13:54:59.719Z,1.80
2023-04-25T13:57:26.799Z,1.80
2023-04-25T13:59:56.714Z,4.93
2023-04-25T14:02:24.003Z,2.07
2023-04-25T14:04:51.005Z,2.60
2023-04-25T14:07:18.866Z,5.40
2023-04-25T14:09:45.824Z,5.00
2023-04-25T14:12:12.735Z,4.77
2023-04-25T14:14:39.682Z,2.30
2023-04-25T14:17:07.532Z,2.10
2023-04-25T14:19:34.433Z,2.53
2023-04-25T14:22:03.617Z,2.57
2023-04-25T14:24:30.487Z,2.67
2023-04-25T14:26:57.416Z,2.17
2023-04-25T14:29:24.371Z,2.43
2023-04-25T14:31:51.441Z,2.60
2023-04-25T14:34:18.473Z,2.33
2023-04-25T14:36:45.449Z,3.97
2023-04-25T14:39:13.490Z,5.17
2023-04-25T14:41:40.548Z,4.37
2023-04-25T14:44:07.496Z,2.17
2023-04-25T14:46:34.518Z,2.60
2023-04-25T14:49:02.007Z,2.40
2023-04-25T14:51:29.025Z,1.97
2023-04-25T14:53:56.483Z,5.67
2023-04-25T14:56:23.630Z,3.70
2023-04-25T14:58:50.860Z,5.70
2023-04-25T15:01:18.014Z,2.30
2023-04-25T15:03:45.140Z,2.40
2023-04-25T15:06:12.160Z,2.57
2023-04-25T15:08:39.084Z,2.27
2023-04-25T15:11:06.177Z,2.10
2023-04-25T15:13:33.658Z,2.40
2023-04-25T15:16:00.760Z,2.00
2023-04-25T15:18:27.672Z,5.30
2023-04-25T15:20:54.969Z,2.90
2023-04-25T15:23:22.728Z,7.93
2023-04-25T15:25:52.593Z,2.87
2023-04-25T15:28:22.136Z,2.47
2023-04-25T15:30:49.485Z,2.70
2023-04-25T15:33:16.642Z,2.50
2023-04-25T15:35:43.671Z,2.90
2023-04-25T15:38:11.667Z,4.70
2023-04-25T15:40:38.795Z,3.23
2023-04-25T15:43:05.796Z,2.10
2023-04-25T15:45:33.102Z,2.20
2023-04-25T15:48:00.088Z,2.20
2023-04-25T15:50:27.319Z,2.90
2023-04-25T15:52:54.341Z,2.60
2023-04-25T15:55:21.914Z,4.20
2023-04-25T15:57:51.309Z,2.67
2023-04-25T16:00:19.590Z,2.70
2023-04-25T16:02:48.411Z,2.10
2023-04-25T16:05:15.952Z,2.20
2023-04-25T16:07:44.981Z,2.43
2023-04-25T16:10:13.081Z,2.40
2023-04-25T16:12:40.980Z,2.37
2023-04-25T16:15:08.848Z,2.60
2023-04-25T16:17:35.827Z,3.03
2023-04-25T16:20:09.556Z,2.67
2023-04-25T16:22:38.723Z,2.53
2023-04-25T16:25:06.628Z,2.40
2023-04-25T16:27:37.944Z,2.57
2023-04-25T16:30:08.209Z,3.10
2023-04-25T16:32:35.935Z,2.83
2023-04-25T16:35:03.007Z,3.73
2023-04-25T16:37:29.905Z,2.50
2023-04-25T16:39:57.996Z,3.43
2023-04-25T16:42:25.514Z,2.67
2023-04-25T16:44:52.476Z,3.13
2023-04-25T16:47:20.544Z,2.90
2023-04-25T16:49:47.714Z,3.30
2023-04-25T16:52:16.069Z,3.10
2023-04-25T16:54:43.192Z,3.10
2023-04-25T16:57:11.209Z,3.33
2023-04-25T16:59:39.443Z,3.33
2023-04-25T17:02:08.575Z,3.10
2023-04-25T17:04:35.920Z,3.53
2023-04-25T17:07:02.998Z,4.17
2023-04-25T17:09:29.995Z,3.70
2023-04-25T17:11:56.901Z,3.30
2023-04-25T17:14:23.824Z,3.20
2023-04-25T17:16:51.094Z,4.30
2023-04-25T17:19:17.975Z,3.67
2023-04-25T17:21:44.967Z,3.80
2023-04-25T17:24:12.810Z,3.37
2023-04-25T17:26:39.812Z,3.63
2023-04-25T17:29:06.788Z,4.37
2023-04-25T17:31:33.857Z,3.27
2023-04-25T17:34:01.390Z,3.90
2023-04-25T17:36:28.310Z,3.40
2023-04-25T17:38:55.163Z,4.57
2023-04-25T17:41:22.067Z,4.50
2023-04-25T17:43:49.634Z,4.63
2023-04-25T17:46:16.614Z,4.87
2023-04-25T17:48:43.584Z,5.20
2023-04-25T17:51:10.634Z,4.73
2023-04-25T17:53:37.593Z,4.53
2023-04-25T17:56:06.942Z,4.90
2023-04-25T17:58:40.267Z,4.73
2023-04-25T18:01:07.169Z,5.27
2023-04-25T18:03:34.150Z,4.93
2023-04-25T18:06:01.138Z,5.53
2023-04-25T18:08:28.044Z,4.67
2023-04-25T18:10:55.180Z,5.47
2023-04-25T18:13:22.066Z,6.00
2023-04-25T18:15:49.039Z,5.90
2023-04-25T18:18:20.093Z,9.17
2023-04-25T18:20:47.386Z,8.87
2023-04-25T18:23:14.294Z,9.17
2023-04-25T18:25:41.982Z,11.57
2023-04-25T18:28:09.165Z,10.37
2023-04-25T18:30:37.943Z,11.27
2023-04-25T18:33:05.045Z,11.73
2023-04-25T18:35:32.046Z,11.77
2023-04-25T18:37:59.056Z,10.60
2023-04-25T18:40:26.034Z,11.80
2023-04-25T18:42:53.011Z,13.37
2023-04-25T18:45:20.063Z,11.37
2023-04-25T18:47:47.124Z,11.33
2023-04-25T18:50:15.428Z,11.90
2023-04-25T18:52:43.198Z,11.07
2023-04-25T18:55:10.579Z,11.23
2023-04-25T18:57:38.522Z,10.57
2023-04-25T19:00:06.949Z,11.23
2023-04-25T19:02:37.990Z,10.40
2023-04-25T19:05:05.715Z,9.90
2023-04-25T19:07:32.669Z,13.00
2023-04-25T19:09:59.956Z,13.03
2023-04-25T19:12:26.948Z,11.97
2023-04-25T19:14:53.881Z,15.00
2023-04-25T19:17:20.786Z,12.20
2023-04-25T19:19:47.756Z,12.83
2023-04-25T19:22:14.691Z,12.50
2023-04-25T19:24:41.602Z,11.63
2023-04-25T19:27:08.559Z,11.97
2023-04-25T19:29:36.627Z,11.00
2023-04-25T19:32:03.625Z,10.87
2023-04-25T19:34:30.657Z,10.77
2023-04-25T19:36:57.598Z,11.00
2023-04-25T19:39:24.770Z,11.50
2023-04-25T19:41:51.750Z,11.40
2023-04-25T19:44:18.695Z,10.70
2023-04-25T19:46:46.752Z,11.40
2023-04-25T19:49:13.712Z,11.50
2023-04-25T19:51:40.909Z,11.80
2023-04-25T19:54:07.879Z,11.60
2023-04-25T19:56:34.986Z,12.00
2023-04-25T19:59:02.071Z,12.57
2023-04-25T20:01:29.435Z,11.70
2023-04-25T20:03:56.761Z,10.93
2023-04-25T20:06:23.969Z,10.60
2023-04-25T20:08:53.916Z,11.20
2023-04-25T20:11:21.709Z,10.43
2023-04-25T20:13:48.750Z,10.70
2023-04-25T20:16:21.056Z,10.27
2023-04-25T20:18:49.011Z,10.40
2023-04-25T20:21:17.110Z,9.80
2023-04-25T20:23:44.250Z,10.43
2023-04-25T20:26:12.639Z,11.47
2023-04-25T20:28:41.747Z,10.93
2023-04-25T20:31:10.891Z,10.57
2023-04-25T20:33:38.681Z,11.60
2023-04-25T20:36:05.774Z,10.63
2023-04-25T20:38:32.655Z,12.57
2023-04-25T20:41:00.365Z,12.63
2023-04-25T20:43:27.401Z,12.97
2023-04-25T20:45:54.949Z,11.70
2023-04-25T20:48:22.354Z,13.23
2023-04-25T20:50:49.302Z,12.83
2023-04-25T20:53:16.745Z,11.97
2023-04-25T20:55:44.226Z,13.37
2023-04-25T20:58:11.259Z,11.83
2023-04-25T21:00:38.950Z,11.13
2023-04-25T21:03:07.230Z,11.77
2023-04-25T21:05:34.760Z,10.03
2023-04-25T21:08:01.727Z,11.13
2023-04-25T21:10:28.905Z,11.50
2023-04-25T21:12:56.592Z,11.50
2023-04-25T21:15:24.678Z,10.20
2023-04-25T21:17:52.464Z,11.50
2023-04-25T21:20:21.488Z,10.93
2023-04-25T21:22:53.044Z,11.80
2023-04-25T21:25:30.833Z,11.43
2023-04-25T21:27:59.254Z,10.50
2023-04-25T21:30:26.952Z,11.27
2023-04-25T21:32:54.362Z,11.60
2023-04-25T21:35:22.652Z,11.40
2023-04-25T21:37:50.193Z,11.73
2023-04-25T21:40:17.509Z,11.20
2023-04-25T21:42:46.790Z,12.87
2023-04-25T21:45:13.753Z,11.60
2023-04-25T21:47:41.027Z,11.70
2023-04-25T21:50:08.602Z,12.10
2023-04-25T21:52:38.831Z,13.83
2023-04-25T21:55:06.083Z,11.90
2023-04-25T21:57:33.162Z,12.90
2023-04-25T22:00:00.234Z,13.70
2023-04-25T22:02:27.912Z,10.70
2023-04-25T22:04:55.077Z,11.80
2023-04-25T22:07:22.096Z,11.63
2023-04-25T22:09:55.146Z,12.70
2023-04-25T22:12:23.560Z,12.70
2023-04-25T22:14:51.182Z,12.30
2023-04-25T22:17:18.750Z,11.50
2023-04-25T22:19:45.763Z,12.80
2023-04-25T22:22:12.731Z,12.27
2023-04-25T22:24:40.177Z,14.73
2023-04-25T22:27:07.160Z,14.50
2023-04-25T22:29:34.201Z,16.33
2023-04-25T22:32:01.774Z,16.60
2023-04-25T22:34:29.020Z,16.30
2023-04-25T22:36:55.953Z,15.73
2023-04-25T22:39:23.464Z,18.40
2023-04-25T22:41:50.489Z,16.33
2023-04-25T22:44:17.837Z,15.07
2023-04-25T22:46:44.806Z,14.87
2023-04-25T22:49:11.987Z,16.40
2023-04-25T22:51:38.903Z,14.17
2023-04-25T22:54:06.027Z,14.37
2023-04-25T22:56:32.926Z,15.23
2023-04-25T22:59:00.005Z,14.80
2023-04-25T23:01:29.119Z,12.87
2023-04-25T23:03:56.617Z,13.47
2023-04-25T23:06:24.751Z,14.07
2023-04-25T23:08:51.955Z,13.10
2023-04-25T23:11:20.343Z,11.10
2023-04-25T23:13:47.470Z,10.90
2023-04-25T23:16:14.360Z,8.80
2023-04-25T23:18:41.385Z,7.00
2023-04-25T23:21:12.178Z,7.10
2023-04-25T23:23:39.926Z,5.83
2023-04-25T23:26:11.169Z,6.90
2023-04-25T23:28:41.445Z,6.00
2023-04-25T23:31:10.560Z,6.63
2023-04-25T23:33:37.767Z,7.23
2023-04-25T23:36:05.353Z,6.20
2023-04-25T23:38:32.810Z,6.20
2023-04-25T23:40:59.957Z,7.07
2023-04-25T23:43:26.880Z,7.23
2023-04-25T23:45:55.281Z,6.20
2023-04-25T23:48:22.997Z,6.93
2023-04-25T23:50:49.983Z,6.37
2023-04-25T23:53:17.096Z,6.13
2023-04-25T23:55:44.092Z,6.67
2023-04-25T23:58:11.077Z,6.60
